Terminal Aerodrome Forecast
Issued by NWS

Home | Current Version | Previous Version | Text Only | Print | Product List | Glossary On
Versions: 1 2 3 4 5 6 7 8 9 10 11 12 13 14 15 16 17 18 19 20 21 22 23 24
000
FTUS43 KGRB 221123
TAFATW
TAF
KATW 221123Z 2212/2312 06006KT P6SM BKN120 WS013/22025KT
     FM222000 11009G14KT 5SM -SHRA BKN060
      TEMPO 2222/2302 2SM TSRA BR BKN024CB
     FM230200 05012G20KT 3SM -SHRA BR BKN006
     FM230800 36013G24KT P6SM -RA OVC005=

USA.gov is the U.S. government's official web portal to all federal, state and local government web resources and services.